sensor_id;sensor_type;location;lat;lon;timestamp;P1;durP1;ratioP1;P2;durP2;ratioP2
18606;SDS011;9433;42.678;23.360;2022-08-16T00:00:32;7.23;;;5.97;;
18606;SDS011;9433;42.678;23.360;2022-08-16T00:03:02;8.67;;;6.83;;
18606;SDS011;9433;42.678;23.360;2022-08-16T00:05:29;8.30;;;7.13;;
18606;SDS011;9433;42.678;23.360;2022-08-16T00:07:57;7.40;;;5.60;;
18606;SDS011;9433;42.678;23.360;2022-08-16T00:10:25;9.03;;;7.47;;
18606;SDS011;9433;42.678;23.360;2022-08-16T00:12:54;7.17;;;6.13;;
18606;SDS011;9433;42.678;23.360;2022-08-16T00:15:25;6.30;;;5.70;;
18606;SDS011;9433;42.678;23.360;2022-08-16T00:17:56;7.43;;;6.10;;
18606;SDS011;9433;42.678;23.360;2022-08-16T00:20:23;11.53;;;6.30;;
18606;SDS011;9433;42.678;23.360;2022-08-16T00:22:51;7.70;;;6.40;;
18606;SDS011;9433;42.678;23.360;2022-08-16T00:25:19;7.97;;;6.47;;
18606;SDS011;9433;42.678;23.360;2022-08-16T00:27:48;9.90;;;6.47;;
18606;SDS011;9433;42.678;23.360;2022-08-16T00:30:16;7.70;;;6.10;;
18606;SDS011;9433;42.678;23.360;2022-08-16T00:32:45;6.87;;;5.80;;
18606;SDS011;9433;42.678;23.360;2022-08-16T00:35:14;11.93;;;6.57;;
18606;SDS011;9433;42.678;23.360;2022-08-16T00:37:44;9.80;;;7.03;;
18606;SDS011;9433;42.678;23.360;2022-08-16T00:40:12;8.17;;;5.87;;
18606;SDS011;9433;42.678;23.360;2022-08-16T00:42:41;6.50;;;5.87;;
18606;SDS011;9433;42.678;23.360;2022-08-16T00:45:11;7.43;;;5.80;;
18606;SDS011;9433;42.678;23.360;2022-08-16T00:47:45;8.73;;;6.23;;
18606;SDS011;9433;42.678;23.360;2022-08-16T00:50:14;7.47;;;6.27;;
18606;SDS011;9433;42.678;23.360;2022-08-16T00:52:41;7.03;;;5.73;;
18606;SDS011;9433;42.678;23.360;2022-08-16T00:55:08;8.20;;;6.33;;
18606;SDS011;9433;42.678;23.360;2022-08-16T00:57:35;8.77;;;6.20;;
18606;SDS011;9433;42.678;23.360;2022-08-16T01:00:03;7.60;;;6.20;;
18606;SDS011;9433;42.678;23.360;2022-08-16T01:02:31;7.00;;;6.10;;
18606;SDS011;9433;42.678;23.360;2022-08-16T01:04:58;7.47;;;6.63;;
18606;SDS011;9433;42.678;23.360;2022-08-16T01:07:26;6.77;;;6.10;;
18606;SDS011;9433;42.678;23.360;2022-08-16T01:09:53;8.17;;;6.27;;
18606;SDS011;9433;42.678;23.360;2022-08-16T01:12:20;7.83;;;5.73;;
18606;SDS011;9433;42.678;23.360;2022-08-16T01:14:49;7.00;;;6.30;;
18606;SDS011;9433;42.678;23.360;2022-08-16T01:17:19;7.20;;;5.93;;
18606;SDS011;9433;42.678;23.360;2022-08-16T01:19:47;7.57;;;6.20;;
18606;SDS011;9433;42.678;23.360;2022-08-16T01:22:18;7.30;;;6.17;;
18606;SDS011;9433;42.678;23.360;2022-08-16T01:24:54;7.90;;;6.10;;
18606;SDS011;9433;42.678;23.360;2022-08-16T01:27:26;9.03;;;5.63;;
18606;SDS011;9433;42.678;23.360;2022-08-16T01:29:56;8.43;;;5.97;;
18606;SDS011;9433;42.678;23.360;2022-08-16T01:32:27;7.27;;;6.30;;
18606;SDS011;9433;42.678;23.360;2022-08-16T01:34:55;6.60;;;5.67;;
18606;SDS011;9433;42.678;23.360;2022-08-16T01:37:22;6.53;;;5.93;;
18606;SDS011;9433;42.678;23.360;2022-08-16T01:39:49;6.63;;;5.83;;
18606;SDS011;9433;42.678;23.360;2022-08-16T01:42:17;8.33;;;6.73;;
18606;SDS011;9433;42.678;23.360;2022-08-16T01:44:44;6.70;;;6.10;;
18606;SDS011;9433;42.678;23.360;2022-08-16T01:47:10;7.07;;;6.07;;
18606;SDS011;9433;42.678;23.360;2022-08-16T01:49:38;7.67;;;6.00;;
18606;SDS011;9433;42.678;23.360;2022-08-16T01:52:07;8.30;;;6.63;;
18606;SDS011;9433;42.678;23.360;2022-08-16T01:54:37;10.97;;;6.57;;
18606;SDS011;9433;42.678;23.360;2022-08-16T01:57:05;7.47;;;6.23;;
18606;SDS011;9433;42.678;23.360;2022-08-16T01:59:35;9.10;;;6.27;;
18606;SDS011;9433;42.678;23.360;2022-08-16T02:02:03;7.17;;;6.23;;
18606;SDS011;9433;42.678;23.360;2022-08-16T02:04:31;7.67;;;6.63;;
18606;SDS011;9433;42.678;23.360;2022-08-16T02:06:59;7.00;;;6.30;;
18606;SDS011;9433;42.678;23.360;2022-08-16T02:09:28;9.37;;;6.97;;
18606;SDS011;9433;42.678;23.360;2022-08-16T02:11:55;9.73;;;7.10;;
18606;SDS011;9433;42.678;23.360;2022-08-16T02:14:25;10.57;;;7.00;;
18606;SDS011;9433;42.678;23.360;2022-08-16T02:16:56;7.17;;;6.37;;
18606;SDS011;9433;42.678;23.360;2022-08-16T02:19:26;9.00;;;7.00;;
18606;SDS011;9433;42.678;23.360;2022-08-16T02:21:55;8.37;;;6.43;;
18606;SDS011;9433;42.678;23.360;2022-08-16T02:24:22;8.20;;;6.47;;
18606;SDS011;9433;42.678;23.360;2022-08-16T02:26:50;8.17;;;7.27;;
18606;SDS011;9433;42.678;23.360;2022-08-16T02:29:17;10.17;;;7.07;;
18606;SDS011;9433;42.678;23.360;2022-08-16T02:31:45;10.60;;;7.60;;
18606;SDS011;9433;42.678;23.360;2022-08-16T02:34:14;8.93;;;7.03;;
18606;SDS011;9433;42.678;23.360;2022-08-16T02:36:41;10.87;;;7.43;;
18606;SDS011;9433;42.678;23.360;2022-08-16T02:39:09;8.83;;;7.20;;
18606;SDS011;9433;42.678;23.360;2022-08-16T02:41:38;9.40;;;7.07;;
18606;SDS011;9433;42.678;23.360;2022-08-16T02:44:06;9.37;;;6.93;;
18606;SDS011;9433;42.678;23.360;2022-08-16T02:46:35;8.27;;;6.20;;
18606;SDS011;9433;42.678;23.360;2022-08-16T02:49:03;8.40;;;6.60;;
18606;SDS011;9433;42.678;23.360;2022-08-16T02:51:32;9.60;;;7.23;;
18606;SDS011;9433;42.678;23.360;2022-08-16T02:53:59;10.50;;;7.67;;
18606;SDS011;9433;42.678;23.360;2022-08-16T02:56:26;9.87;;;7.53;;
18606;SDS011;9433;42.678;23.360;2022-08-16T02:58:53;10.03;;;7.60;;
18606;SDS011;9433;42.678;23.360;2022-08-16T03:01:21;10.77;;;7.33;;
18606;SDS011;9433;42.678;23.360;2022-08-16T03:03:49;7.87;;;6.40;;
18606;SDS011;9433;42.678;23.360;2022-08-16T03:06:16;8.80;;;6.87;;
18606;SDS011;9433;42.678;23.360;2022-08-16T03:08:46;9.27;;;7.17;;
18606;SDS011;9433;42.678;23.360;2022-08-16T03:11:13;8.40;;;7.57;;
18606;SDS011;9433;42.678;23.360;2022-08-16T03:13:42;9.47;;;7.83;;
18606;SDS011;9433;42.678;23.360;2022-08-16T03:16:10;10.83;;;9.73;;
18606;SDS011;9433;42.678;23.360;2022-08-16T03:18:37;11.03;;;9.50;;
18606;SDS011;9433;42.678;23.360;2022-08-16T03:21:04;10.90;;;9.67;;
18606;SDS011;9433;42.678;23.360;2022-08-16T03:23:32;11.23;;;10.03;;
18606;SDS011;9433;42.678;23.360;2022-08-16T03:26:00;10.63;;;8.53;;
18606;SDS011;9433;42.678;23.360;2022-08-16T03:28:27;8.03;;;7.23;;
18606;SDS011;9433;42.678;23.360;2022-08-16T03:30:54;8.83;;;7.77;;
18606;SDS011;9433;42.678;23.360;2022-08-16T03:33:20;9.80;;;7.33;;
18606;SDS011;9433;42.678;23.360;2022-08-16T03:35:48;9.80;;;8.60;;
18606;SDS011;9433;42.678;23.360;2022-08-16T03:38:15;9.67;;;7.90;;
18606;SDS011;9433;42.678;23.360;2022-08-16T03:40:43;11.20;;;8.93;;
18606;SDS011;9433;42.678;23.360;2022-08-16T03:43:12;11.83;;;9.07;;
18606;SDS011;9433;42.678;23.360;2022-08-16T03:45:39;11.43;;;8.97;;
18606;SDS011;9433;42.678;23.360;2022-08-16T03:48:06;9.80;;;8.40;;
18606;SDS011;9433;42.678;23.360;2022-08-16T03:50:34;10.10;;;8.50;;
18606;SDS011;9433;42.678;23.360;2022-08-16T03:53:02;11.30;;;8.33;;
18606;SDS011;9433;42.678;23.360;2022-08-16T03:55:30;10.97;;;9.10;;
18606;SDS011;9433;42.678;23.360;2022-08-16T03:57:56;10.20;;;8.57;;
18606;SDS011;9433;42.678;23.360;2022-08-16T04:00:25;10.20;;;8.13;;
18606;SDS011;9433;42.678;23.360;2022-08-16T04:02:56;10.67;;;8.43;;
18606;SDS011;9433;42.678;23.360;2022-08-16T04:05:26;11.50;;;8.33;;
18606;SDS011;9433;42.678;23.360;2022-08-16T04:07:53;10.60;;;9.03;;
18606;SDS011;9433;42.678;23.360;2022-08-16T04:10:20;11.13;;;8.30;;
18606;SDS011;9433;42.678;23.360;2022-08-16T04:12:47;9.57;;;7.87;;
18606;SDS011;9433;42.678;23.360;2022-08-16T04:15:14;9.77;;;8.17;;
18606;SDS011;9433;42.678;23.360;2022-08-16T04:17:44;8.80;;;7.27;;
18606;SDS011;9433;42.678;23.360;2022-08-16T04:20:11;12.93;;;8.97;;
18606;SDS011;9433;42.678;23.360;2022-08-16T04:22:39;10.07;;;8.13;;
18606;SDS011;9433;42.678;23.360;2022-08-16T04:25:08;10.67;;;8.97;;
18606;SDS011;9433;42.678;23.360;2022-08-16T04:27:35;11.47;;;8.93;;
18606;SDS011;9433;42.678;23.360;2022-08-16T04:30:04;11.57;;;9.87;;
18606;SDS011;9433;42.678;23.360;2022-08-16T04:32:33;10.97;;;8.33;;
18606;SDS011;9433;42.678;23.360;2022-08-16T04:35:01;10.67;;;8.47;;
18606;SDS011;9433;42.678;23.360;2022-08-16T04:37:27;11.40;;;9.03;;
18606;SDS011;9433;42.678;23.360;2022-08-16T04:39:54;11.77;;;9.40;;
18606;SDS011;9433;42.678;23.360;2022-08-16T04:42:21;12.10;;;9.87;;
18606;SDS011;9433;42.678;23.360;2022-08-16T04:44:48;12.67;;;9.57;;
18606;SDS011;9433;42.678;23.360;2022-08-16T04:47:14;11.97;;;8.70;;
18606;SDS011;9433;42.678;23.360;2022-08-16T04:49:41;13.47;;;8.57;;
18606;SDS011;9433;42.678;23.360;2022-08-16T04:52:10;10.00;;;8.07;;
18606;SDS011;9433;42.678;23.360;2022-08-16T04:54:36;10.77;;;8.70;;
18606;SDS011;9433;42.678;23.360;2022-08-16T04:57:04;11.93;;;8.87;;
18606;SDS011;9433;42.678;23.360;2022-08-16T04:59:31;14.37;;;9.23;;
18606;SDS011;9433;42.678;23.360;2022-08-16T05:01:58;11.10;;;8.70;;
18606;SDS011;9433;42.678;23.360;2022-08-16T05:04:24;11.23;;;8.13;;
18606;SDS011;9433;42.678;23.360;2022-08-16T05:06:51;13.07;;;9.73;;
18606;SDS011;9433;42.678;23.360;2022-08-16T05:09:19;10.30;;;8.50;;
18606;SDS011;9433;42.678;23.360;2022-08-16T05:11:46;13.07;;;9.90;;
18606;SDS011;9433;42.678;23.360;2022-08-16T05:14:13;12.10;;;9.17;;
18606;SDS011;9433;42.678;23.360;2022-08-16T05:16:40;12.70;;;10.30;;
18606;SDS011;9433;42.678;23.360;2022-08-16T05:19:08;11.93;;;9.17;;
18606;SDS011;9433;42.678;23.360;2022-08-16T05:21:35;9.97;;;8.93;;
18606;SDS011;9433;42.678;23.360;2022-08-16T05:24:02;13.63;;;9.23;;
18606;SDS011;9433;42.678;23.360;2022-08-16T05:26:31;12.50;;;9.63;;
18606;SDS011;9433;42.678;23.360;2022-08-16T05:29:00;11.63;;;9.10;;
18606;SDS011;9433;42.678;23.360;2022-08-16T05:31:27;11.43;;;8.87;;
18606;SDS011;9433;42.678;23.360;2022-08-16T05:33:54;10.50;;;8.20;;
18606;SDS011;9433;42.678;23.360;2022-08-16T05:36:21;13.33;;;9.60;;
18606;SDS011;9433;42.678;23.360;2022-08-16T05:38:49;11.43;;;9.77;;
18606;SDS011;9433;42.678;23.360;2022-08-16T05:41:15;13.13;;;10.20;;
18606;SDS011;9433;42.678;23.360;2022-08-16T05:43:45;13.93;;;9.73;;
18606;SDS011;9433;42.678;23.360;2022-08-16T05:46:12;15.63;;;10.70;;
18606;SDS011;9433;42.678;23.360;2022-08-16T05:48:42;13.10;;;9.97;;
18606;SDS011;9433;42.678;23.360;2022-08-16T05:51:08;13.60;;;10.53;;
18606;SDS011;9433;42.678;23.360;2022-08-16T05:53:35;13.03;;;10.37;;
18606;SDS011;9433;42.678;23.360;2022-08-16T05:56:02;13.50;;;9.70;;
18606;SDS011;9433;42.678;23.360;2022-08-16T05:58:29;15.33;;;11.00;;
18606;SDS011;9433;42.678;23.360;2022-08-16T06:00:57;13.50;;;10.00;;
18606;SDS011;9433;42.678;23.360;2022-08-16T06:03:24;12.30;;;9.70;;
18606;SDS011;9433;42.678;23.360;2022-08-16T06:05:51;11.77;;;9.40;;
18606;SDS011;9433;42.678;23.360;2022-08-16T06:08:17;11.90;;;9.57;;
18606;SDS011;9433;42.678;23.360;2022-08-16T06:10:44;10.87;;;8.40;;
18606;SDS011;9433;42.678;23.360;2022-08-16T06:13:11;10.50;;;8.87;;
18606;SDS011;9433;42.678;23.360;2022-08-16T06:15:38;14.23;;;10.63;;
18606;SDS011;9433;42.678;23.360;2022-08-16T06:18:06;14.93;;;10.80;;
18606;SDS011;9433;42.678;23.360;2022-08-16T06:20:32;13.50;;;9.23;;
18606;SDS011;9433;42.678;23.360;2022-08-16T06:22:59;12.13;;;9.10;;
18606;SDS011;9433;42.678;23.360;2022-08-16T06:25:27;12.33;;;9.23;;
18606;SDS011;9433;42.678;23.360;2022-08-16T06:27:54;12.30;;;9.50;;
18606;SDS011;9433;42.678;23.360;2022-08-16T06:30:21;12.97;;;9.30;;
18606;SDS011;9433;42.678;23.360;2022-08-16T06:32:48;11.87;;;10.13;;
18606;SDS011;9433;42.678;23.360;2022-08-16T06:35:16;12.23;;;9.73;;
18606;SDS011;9433;42.678;23.360;2022-08-16T06:37:43;10.80;;;9.07;;
18606;SDS011;9433;42.678;23.360;2022-08-16T06:40:10;14.00;;;10.00;;
18606;SDS011;9433;42.678;23.360;2022-08-16T06:42:37;12.57;;;8.43;;
18606;SDS011;9433;42.678;23.360;2022-08-16T06:45:05;11.70;;;8.97;;
18606;SDS011;9433;42.678;23.360;2022-08-16T06:47:32;12.80;;;9.57;;
18606;SDS011;9433;42.678;23.360;2022-08-16T06:49:59;12.83;;;9.17;;
18606;SDS011;9433;42.678;23.360;2022-08-16T06:52:27;11.90;;;9.13;;
18606;SDS011;9433;42.678;23.360;2022-08-16T06:55:01;12.60;;;8.90;;
18606;SDS011;9433;42.678;23.360;2022-08-16T06:57:28;11.17;;;8.93;;
18606;SDS011;9433;42.678;23.360;2022-08-16T06:59:55;10.83;;;9.13;;
18606;SDS011;9433;42.678;23.360;2022-08-16T07:02:21;10.63;;;9.00;;
18606;SDS011;9433;42.678;23.360;2022-08-16T07:04:48;10.50;;;9.33;;
18606;SDS011;9433;42.678;23.360;2022-08-16T07:07:15;10.67;;;8.77;;
18606;SDS011;9433;42.678;23.360;2022-08-16T07:09:43;12.33;;;9.40;;
18606;SDS011;9433;42.678;23.360;2022-08-16T07:12:11;11.20;;;9.10;;
18606;SDS011;9433;42.678;23.360;2022-08-16T07:14:38;11.23;;;7.97;;
18606;SDS011;9433;42.678;23.360;2022-08-16T07:17:05;9.83;;;8.83;;
18606;SDS011;9433;42.678;23.360;2022-08-16T07:19:32;11.20;;;9.17;;
18606;SDS011;9433;42.678;23.360;2022-08-16T07:21:59;10.67;;;8.67;;
18606;SDS011;9433;42.678;23.360;2022-08-16T07:24:26;9.63;;;7.83;;
18606;SDS011;9433;42.678;23.360;2022-08-16T07:26:55;12.23;;;8.50;;
18606;SDS011;9433;42.678;23.360;2022-08-16T07:29:21;9.67;;;7.80;;
18606;SDS011;9433;42.678;23.360;2022-08-16T07:31:48;10.47;;;7.83;;
18606;SDS011;9433;42.678;23.360;2022-08-16T07:34:15;9.23;;;7.50;;
18606;SDS011;9433;42.678;23.360;2022-08-16T07:36:42;11.87;;;8.90;;
18606;SDS011;9433;42.678;23.360;2022-08-16T07:39:09;9.80;;;8.57;;
18606;SDS011;9433;42.678;23.360;2022-08-16T07:41:36;8.98;;;7.65;;
18606;SDS011;9433;42.678;23.360;2022-08-16T07:44:04;10.10;;;8.82;;
18606;SDS011;9433;42.678;23.360;2022-08-16T07:46:31;10.70;;;9.13;;
18606;SDS011;9433;42.678;23.360;2022-08-16T07:48:58;9.80;;;7.72;;
18606;SDS011;9433;42.678;23.360;2022-08-16T07:51:25;12.15;;;8.25;;
18606;SDS011;9433;42.678;23.360;2022-08-16T07:53:51;9.40;;;7.97;;
18606;SDS011;9433;42.678;23.360;2022-08-16T07:56:18;10.05;;;8.43;;
18606;SDS011;9433;42.678;23.360;2022-08-16T07:58:45;9.35;;;8.00;;
18606;SDS011;9433;42.678;23.360;2022-08-16T08:01:13;8.75;;;7.85;;
18606;SDS011;9433;42.678;23.360;2022-08-16T08:03:41;8.90;;;7.65;;
18606;SDS011;9433;42.678;23.360;2022-08-16T08:06:09;9.27;;;7.25;;
18606;SDS011;9433;42.678;23.360;2022-08-16T08:08:36;10.05;;;8.63;;
18606;SDS011;9433;42.678;23.360;2022-08-16T08:11:03;9.73;;;7.45;;
18606;SDS011;9433;42.678;23.360;2022-08-16T08:13:30;10.65;;;7.97;;
18606;SDS011;9433;42.678;23.360;2022-08-16T08:15:57;9.02;;;8.00;;
18606;SDS011;9433;42.678;23.360;2022-08-16T08:18:25;9.85;;;7.30;;
18606;SDS011;9433;42.678;23.360;2022-08-16T08:20:54;7.05;;;6.40;;
18606;SDS011;9433;42.678;23.360;2022-08-16T08:23:20;8.60;;;6.80;;
18606;SDS011;9433;42.678;23.360;2022-08-16T08:25:48;7.07;;;6.38;;
18606;SDS011;9433;42.678;23.360;2022-08-16T08:28:14;6.00;;;5.30;;
18606;SDS011;9433;42.678;23.360;2022-08-16T08:30:41;5.93;;;5.32;;
18606;SDS011;9433;42.678;23.360;2022-08-16T08:33:08;9.05;;;5.68;;
18606;SDS011;9433;42.678;23.360;2022-08-16T08:35:38;7.30;;;5.03;;
18606;SDS011;9433;42.678;23.360;2022-08-16T08:38:05;5.47;;;4.95;;
18606;SDS011;9433;42.678;23.360;2022-08-16T08:40:33;5.47;;;4.97;;
18606;SDS011;9433;42.678;23.360;2022-08-16T08:43:00;5.22;;;4.72;;
18606;SDS011;9433;42.678;23.360;2022-08-16T08:45:28;5.30;;;4.80;;
18606;SDS011;9433;42.678;23.360;2022-08-16T08:47:55;5.70;;;5.15;;
18606;SDS011;9433;42.678;23.360;2022-08-16T08:50:22;4.88;;;4.47;;
18606;SDS011;9433;42.678;23.360;2022-08-16T08:52:51;4.47;;;4.07;;
18606;SDS011;9433;42.678;23.360;2022-08-16T08:55:19;6.32;;;5.00;;
18606;SDS011;9433;42.678;23.360;2022-08-16T08:57:47;5.95;;;4.65;;
18606;SDS011;9433;42.678;23.360;2022-08-16T09:00:15;5.32;;;4.13;;
18606;SDS011;9433;42.678;23.360;2022-08-16T09:02:44;4.28;;;3.88;;
18606;SDS011;9433;42.678;23.360;2022-08-16T09:05:11;3.65;;;3.35;;
18606;SDS011;9433;42.678;23.360;2022-08-16T09:07:39;4.72;;;3.67;;
18606;SDS011;9433;42.678;23.360;2022-08-16T09:10:07;4.40;;;4.03;;
18606;SDS011;9433;42.678;23.360;2022-08-16T09:12:35;4.13;;;3.83;;
18606;SDS011;9433;42.678;23.360;2022-08-16T09:15:02;4.05;;;3.60;;
18606;SDS011;9433;42.678;23.360;2022-08-16T09:17:30;4.10;;;3.72;;
18606;SDS011;9433;42.678;23.360;2022-08-16T09:19:57;4.65;;;3.42;;
18606;SDS011;9433;42.678;23.360;2022-08-16T09:22:24;4.63;;;3.25;;
18606;SDS011;9433;42.678;23.360;2022-08-16T09:24:53;4.72;;;3.38;;
18606;SDS011;9433;42.678;23.360;2022-08-16T09:27:21;3.92;;;3.53;;
18606;SDS011;9433;42.678;23.360;2022-08-16T09:29:49;4.65;;;3.90;;
18606;SDS011;9433;42.678;23.360;2022-08-16T09:32:15;4.00;;;3.60;;
18606;SDS011;9433;42.678;23.360;2022-08-16T09:34:43;4.45;;;4.05;;
18606;SDS011;9433;42.678;23.360;2022-08-16T09:37:10;6.72;;;3.92;;
18606;SDS011;9433;42.678;23.360;2022-08-16T09:39:38;4.45;;;3.67;;
18606;SDS011;9433;42.678;23.360;2022-08-16T09:42:05;4.53;;;3.80;;
18606;SDS011;9433;42.678;23.360;2022-08-16T09:44:33;5.93;;;4.07;;
18606;SDS011;9433;42.678;23.360;2022-08-16T09:47:00;4.70;;;4.15;;
18606;SDS011;9433;42.678;23.360;2022-08-16T09:49:28;3.80;;;3.50;;
18606;SDS011;9433;42.678;23.360;2022-08-16T09:51:55;4.38;;;4.07;;
18606;SDS011;9433;42.678;23.360;2022-08-16T09:54:22;4.25;;;3.85;;
18606;SDS011;9433;42.678;23.360;2022-08-16T09:56:51;5.50;;;4.03;;
18606;SDS011;9433;42.678;23.360;2022-08-16T09:59:18;4.43;;;3.97;;
18606;SDS011;9433;42.678;23.360;2022-08-16T10:01:48;4.43;;;4.03;;
18606;SDS011;9433;42.678;23.360;2022-08-16T10:04:15;4.95;;;3.80;;
18606;SDS011;9433;42.678;23.360;2022-08-16T10:06:42;4.30;;;3.90;;
18606;SDS011;9433;42.678;23.360;2022-08-16T10:09:10;3.97;;;3.67;;
18606;SDS011;9433;42.678;23.360;2022-08-16T10:11:39;5.00;;;3.65;;
18606;SDS011;9433;42.678;23.360;2022-08-16T10:14:24;3.88;;;3.38;;
18606;SDS011;9433;42.678;23.360;2022-08-16T10:16:57;3.67;;;3.33;;
18606;SDS011;9433;42.678;23.360;2022-08-16T10:19:25;3.88;;;3.47;;
18606;SDS011;9433;42.678;23.360;2022-08-16T10:21:53;3.88;;;2.78;;
18606;SDS011;9433;42.678;23.360;2022-08-16T10:24:21;4.97;;;3.83;;
18606;SDS011;9433;42.678;23.360;2022-08-16T10:26:48;3.45;;;3.15;;
18606;SDS011;9433;42.678;23.360;2022-08-16T10:29:16;3.47;;;3.17;;
18606;SDS011;9433;42.678;23.360;2022-08-16T10:31:43;5.22;;;3.22;;
18606;SDS011;9433;42.678;23.360;2022-08-16T10:34:11;3.13;;;2.83;;
18606;SDS011;9433;42.678;23.360;2022-08-16T10:36:39;3.38;;;3.08;;
18606;SDS011;9433;42.678;23.360;2022-08-16T10:39:06;3.60;;;3.30;;
18606;SDS011;9433;42.678;23.360;2022-08-16T10:41:33;3.42;;;3.13;;
18606;SDS011;9433;42.678;23.360;2022-08-16T10:44:00;3.67;;;2.95;;
18606;SDS011;9433;42.678;23.360;2022-08-16T10:46:27;3.97;;;3.58;;
18606;SDS011;9433;42.678;23.360;2022-08-16T10:48:55;4.50;;;3.72;;
18606;SDS011;9433;42.678;23.360;2022-08-16T10:51:23;5.30;;;3.88;;
18606;SDS011;9433;42.678;23.360;2022-08-16T10:53:50;3.22;;;3.03;;
18606;SDS011;9433;42.678;23.360;2022-08-16T10:56:17;4.40;;;3.63;;
18606;SDS011;9433;42.678;23.360;2022-08-16T10:58:44;4.20;;;3.80;;
18606;SDS011;9433;42.678;23.360;2022-08-16T11:01:11;4.13;;;3.80;;
18606;SDS011;9433;42.678;23.360;2022-08-16T11:03:39;4.72;;;3.95;;
18606;SDS011;9433;42.678;23.360;2022-08-16T11:06:07;4.20;;;3.45;;
18606;SDS011;9433;42.678;23.360;2022-08-16T11:08:35;4.65;;;3.20;;
18606;SDS011;9433;42.678;23.360;2022-08-16T11:11:03;4.95;;;3.08;;
18606;SDS011;9433;42.678;23.360;2022-08-16T11:13:31;3.60;;;3.30;;
18606;SDS011;9433;42.678;23.360;2022-08-16T11:15:58;3.83;;;3.47;;
18606;SDS011;9433;42.678;23.360;2022-08-16T11:18:26;3.67;;;3.25;;
18606;SDS011;9433;42.678;23.360;2022-08-16T11:20:54;4.55;;;3.25;;
18606;SDS011;9433;42.678;23.360;2022-08-16T11:23:22;3.80;;;3.50;;
18606;SDS011;9433;42.678;23.360;2022-08-16T11:25:51;4.05;;;3.65;;
18606;SDS011;9433;42.678;23.360;2022-08-16T11:28:19;5.13;;;3.45;;
18606;SDS011;9433;42.678;23.360;2022-08-16T11:30:46;4.32;;;3.47;;
18606;SDS011;9433;42.678;23.360;2022-08-16T11:33:13;3.47;;;3.17;;
18606;SDS011;9433;42.678;23.360;2022-08-16T11:35:40;3.92;;;3.58;;
18606;SDS011;9433;42.678;23.360;2022-08-16T11:38:08;4.22;;;3.83;;
18606;SDS011;9433;42.678;23.360;2022-08-16T11:40:39;3.67;;;3.38;;
18606;SDS011;9433;42.678;23.360;2022-08-16T11:43:12;4.53;;;4.13;;
18606;SDS011;9433;42.678;23.360;2022-08-16T11:45:40;5.57;;;4.53;;
18606;SDS011;9433;42.678;23.360;2022-08-16T11:48:07;5.80;;;3.92;;
18606;SDS011;9433;42.678;23.360;2022-08-16T11:50:34;6.78;;;4.20;;
18606;SDS011;9433;42.678;23.360;2022-08-16T11:53:01;7.15;;;5.38;;
18606;SDS011;9433;42.678;23.360;2022-08-16T11:55:30;8.35;;;4.93;;
18606;SDS011;9433;42.678;23.360;2022-08-16T11:57:58;7.15;;;4.63;;
18606;SDS011;9433;42.678;23.360;2022-08-16T12:00:28;4.97;;;4.40;;
18606;SDS011;9433;42.678;23.360;2022-08-16T12:02:58;3.95;;;3.47;;
18606;SDS011;9433;42.678;23.360;2022-08-16T12:05:25;4.60;;;4.20;;
18606;SDS011;9433;42.678;23.360;2022-08-16T12:07:52;6.57;;;4.35;;
18606;SDS011;9433;42.678;23.360;2022-08-16T12:10:21;7.22;;;4.80;;
18606;SDS011;9433;42.678;23.360;2022-08-16T12:12:49;4.68;;;4.28;;
18606;SDS011;9433;42.678;23.360;2022-08-16T12:15:17;5.18;;;4.65;;
18606;SDS011;9433;42.678;23.360;2022-08-16T12:17:46;6.43;;;4.47;;
18606;SDS011;9433;42.678;23.360;2022-08-16T12:20:14;4.85;;;4.35;;
18606;SDS011;9433;42.678;23.360;2022-08-16T12:22:43;5.03;;;4.43;;
18606;SDS011;9433;42.678;23.360;2022-08-16T12:25:14;5.68;;;4.13;;
18606;SDS011;9433;42.678;23.360;2022-08-16T12:27:44;5.43;;;4.50;;
18606;SDS011;9433;42.678;23.360;2022-08-16T12:30:14;4.05;;;3.75;;
18606;SDS011;9433;42.678;23.360;2022-08-16T12:32:43;4.72;;;4.32;;
18606;SDS011;9433;42.678;23.360;2022-08-16T12:35:12;6.40;;;3.85;;
18606;SDS011;9433;42.678;23.360;2022-08-16T12:37:41;4.28;;;3.88;;
18606;SDS011;9433;42.678;23.360;2022-08-16T14:09:02;3.42;;;2.90;;
18606;SDS011;9433;42.678;23.360;2022-08-16T14:11:29;2.90;;;2.70;;
18606;SDS011;9433;42.678;23.360;2022-08-16T14:13:56;4.70;;;2.72;;
18606;SDS011;9433;42.678;23.360;2022-08-16T14:16:23;3.67;;;2.70;;
18606;SDS011;9433;42.678;23.360;2022-08-16T14:18:50;4.53;;;2.95;;
18606;SDS011;9433;42.678;23.360;2022-08-16T14:21:17;2.83;;;2.63;;
18606;SDS011;9433;42.678;23.360;2022-08-16T14:23:44;2.63;;;2.42;;
18606;SDS011;9433;42.678;23.360;2022-08-16T14:26:12;3.83;;;2.92;;
18606;SDS011;9433;42.678;23.360;2022-08-16T14:28:39;2.63;;;2.42;;
18606;SDS011;9433;42.678;23.360;2022-08-16T14:31:06;2.70;;;2.50;;
18606;SDS011;9433;42.678;23.360;2022-08-16T14:33:33;4.15;;;3.15;;
18606;SDS011;9433;42.678;23.360;2022-08-16T14:36:00;2.95;;;2.75;;
18606;SDS011;9433;42.678;23.360;2022-08-16T14:38:27;3.42;;;2.70;;
18606;SDS011;9433;42.678;23.360;2022-08-16T14:40:54;3.38;;;2.35;;
18606;SDS011;9433;42.678;23.360;2022-08-16T14:43:22;3.00;;;2.80;;
18606;SDS011;9433;42.678;23.360;2022-08-16T14:45:49;4.70;;;3.53;;
18606;SDS011;9433;42.678;23.360;2022-08-16T14:48:16;3.75;;;3.17;;
18606;SDS011;9433;42.678;23.360;2022-08-16T14:50:43;2.72;;;2.53;;
18606;SDS011;9433;42.678;23.360;2022-08-16T14:53:09;6.28;;;3.10;;
18606;SDS011;9433;42.678;23.360;2022-08-16T14:55:36;3.05;;;2.80;;
18606;SDS011;9433;42.678;23.360;2022-08-16T14:58:04;3.22;;;2.92;;
18606;SDS011;9433;42.678;23.360;2022-08-16T15:00:32;3.53;;;2.92;;
18606;SDS011;9433;42.678;23.360;2022-08-16T15:03:01;3.13;;;2.83;;
18606;SDS011;9433;42.678;23.360;2022-08-16T15:05:34;3.47;;;2.83;;
18606;SDS011;9433;42.678;23.360;2022-08-16T15:08:03;2.92;;;2.65;;
18606;SDS011;9433;42.678;23.360;2022-08-16T15:10:30;3.78;;;3.00;;
18606;SDS011;9433;42.678;23.360;2022-08-16T15:12:57;3.85;;;2.80;;
18606;SDS011;9433;42.678;23.360;2022-08-16T15:15:25;3.22;;;2.90;;
18606;SDS011;9433;42.678;23.360;2022-08-16T15:17:55;3.97;;;2.67;;
18606;SDS011;9433;42.678;23.360;2022-08-16T15:20:22;3.00;;;2.70;;
18606;SDS011;9433;42.678;23.360;2022-08-16T15:22:51;3.00;;;2.53;;
18606;SDS011;9433;42.678;23.360;2022-08-16T15:25:18;3.30;;;2.63;;
18606;SDS011;9433;42.678;23.360;2022-08-16T15:27:47;5.40;;;3.13;;
18606;SDS011;9433;42.678;23.360;2022-08-16T15:30:16;3.22;;;2.92;;
18606;SDS011;9433;42.678;23.360;2022-08-16T15:32:44;2.58;;;2.38;;
18606;SDS011;9433;42.678;23.360;2022-08-16T15:35:14;2.60;;;2.38;;
18606;SDS011;9433;42.678;23.360;2022-08-16T15:37:41;2.60;;;2.40;;
18606;SDS011;9433;42.678;23.360;2022-08-16T15:40:09;2.47;;;2.20;;
18606;SDS011;9433;42.678;23.360;2022-08-16T15:42:40;2.83;;;2.58;;
18606;SDS011;9433;42.678;23.360;2022-08-16T15:45:08;4.10;;;2.35;;
18606;SDS011;9433;42.678;23.360;2022-08-16T15:47:36;2.92;;;2.63;;
18606;SDS011;9433;42.678;23.360;2022-08-16T15:50:03;3.60;;;2.60;;
18606;SDS011;9433;42.678;23.360;2022-08-16T15:52:32;3.15;;;2.08;;
18606;SDS011;9433;42.678;23.360;2022-08-16T15:55:01;2.33;;;2.15;;
18606;SDS011;9433;42.678;23.360;2022-08-16T15:57:31;2.58;;;2.38;;
18606;SDS011;9433;42.678;23.360;2022-08-16T15:59:58;3.13;;;2.83;;
18606;SDS011;9433;42.678;23.360;2022-08-16T16:02:27;3.22;;;2.60;;
18606;SDS011;9433;42.678;23.360;2022-08-16T16:04:53;4.22;;;2.65;;
18606;SDS011;9433;42.678;23.360;2022-08-16T16:07:20;3.15;;;2.78;;
18606;SDS011;9433;42.678;23.360;2022-08-16T16:09:48;4.50;;;2.60;;
18606;SDS011;9433;42.678;23.360;2022-08-16T16:12:15;3.80;;;2.83;;
18606;SDS011;9433;42.678;23.360;2022-08-16T16:14:42;3.47;;;3.13;;